createdAt,value
2022-08-25T00:00:21.701Z,19.49
2022-08-25T00:02:54.936Z,19.58
2022-08-25T00:05:26.163Z,19.57
2022-08-25T00:07:54.785Z,19.58
2022-08-25T00:10:21.686Z,19.57
2022-08-25T00:12:55.304Z,19.59
2022-08-25T00:15:23.881Z,19.64
2022-08-25T00:17:51.574Z,19.63
2022-08-25T00:20:18.378Z,19.61
2022-08-25T00:22:45.321Z,19.66
2022-08-25T00:25:12.752Z,19.57
2022-08-25T00:27:39.505Z,19.46
2022-08-25T00:30:07.657Z,19.64
2022-08-25T00:32:34.317Z,19.57
2022-08-25T00:35:01.161Z,19.38
2022-08-25T00:37:27.987Z,19.43
2022-08-25T00:39:57.012Z,19.44
2022-08-25T00:42:26.307Z,19.48
2022-08-25T00:44:53.804Z,19.41
2022-08-25T00:47:20.615Z,19.46
2022-08-25T00:49:54.184Z,19.24
2022-08-25T00:52:27.963Z,19.31
2022-08-25T00:55:08.309Z,19.20
2022-08-25T00:57:45.888Z,19.27
2022-08-25T01:00:41.052Z,19.16
2022-08-25T01:03:07.902Z,19.10
2022-08-25T01:05:35.735Z,19.04
2022-08-25T01:08:06.281Z,18.94
2022-08-25T01:10:37.298Z,18.97
2022-08-25T01:13:16.718Z,19.05
2022-08-25T01:15:48.871Z,19.08
2022-08-25T01:18:16.315Z,19.06
2022-08-25T01:20:43.721Z,19.16
2022-08-25T01:23:10.693Z,19.19
2022-08-25T01:26:07.643Z,19.19
2022-08-25T01:28:36.050Z,19.19
2022-08-25T01:31:05.047Z,19.17
2022-08-25T01:33:51.226Z,19.15
2022-08-25T01:36:20.269Z,19.10
2022-08-25T01:38:46.982Z,19.13
2022-08-25T01:41:40.217Z,19.07
2022-08-25T01:44:12.413Z,19.10
2022-08-25T01:46:43.567Z,19.01
2022-08-25T01:49:10.633Z,18.85
2022-08-25T01:52:11.053Z,18.79
2022-08-25T01:54:38.226Z,18.87
2022-08-25T01:57:05.471Z,18.65
2022-08-25T01:59:32.312Z,18.33
2022-08-25T02:02:00.176Z,18.21
2022-08-25T02:04:32.059Z,18.12
2022-08-25T02:07:01.749Z,18.05
2022-08-25T02:09:29.507Z,18.12
2022-08-25T02:11:59.115Z,18.10
2022-08-25T02:14:26.203Z,18.15
2022-08-25T02:16:54.852Z,18.17
2022-08-25T02:19:24.623Z,18.27
2022-08-25T02:21:51.957Z,18.35
2022-08-25T02:24:18.824Z,18.14
2022-08-25T02:26:46.051Z,18.17
2022-08-25T02:29:13.102Z,18.14
2022-08-25T02:31:40.509Z,18.21
2022-08-25T02:34:08.713Z,18.25
2022-08-25T02:36:38.073Z,18.37
2022-08-25T02:39:09.944Z,18.44
2022-08-25T02:41:37.041Z,18.36
2022-08-25T02:44:06.581Z,18.29
2022-08-25T02:46:34.214Z,18.22
2022-08-25T02:49:01.455Z,18.17
2022-08-25T02:51:30.276Z,18.03
2022-08-25T02:53:59.224Z,18.00
2022-08-25T02:56:26.302Z,17.98
2022-08-25T02:58:53.309Z,17.93
2022-08-25T03:01:20.923Z,17.98
2022-08-25T03:03:52.357Z,18.12
2022-08-25T03:06:25.462Z,18.06
2022-08-25T03:08:53.355Z,18.08
2022-08-25T03:11:21.053Z,18.05
2022-08-25T03:13:51.032Z,18.11
2022-08-25T03:16:19.235Z,18.18
2022-08-25T03:18:46.574Z,18.16
2022-08-25T03:21:15.775Z,18.07
2022-08-25T03:23:44.381Z,18.06
2022-08-25T03:26:30.010Z,17.89
2022-08-25T03:28:57.315Z,17.81
2022-08-25T03:31:27.701Z,17.67
2022-08-25T03:33:55.155Z,17.65
2022-08-25T03:36:22.028Z,17.69
2022-08-25T03:38:48.760Z,17.66
2022-08-25T03:41:28.080Z,17.74
2022-08-25T03:43:57.010Z,17.63
2022-08-25T03:46:38.004Z,17.61
2022-08-25T03:49:08.232Z,17.58
2022-08-25T03:51:40.447Z,17.49
2022-08-25T03:54:09.324Z,17.51
2022-08-25T03:56:36.421Z,17.55
2022-08-25T03:59:03.653Z,17.47
2022-08-25T04:01:30.420Z,17.39
2022-08-25T04:03:57.082Z,17.45
2022-08-25T04:06:23.649Z,17.47
2022-08-25T04:08:52.642Z,17.43
2022-08-25T04:11:22.778Z,17.44
2022-08-25T04:13:51.896Z,17.39
2022-08-25T04:16:29.705Z,17.55
2022-08-25T04:18:58.767Z,17.52
2022-08-25T04:21:26.341Z,17.53
2022-08-25T04:23:55.193Z,17.41
2022-08-25T04:26:33.275Z,17.26
2022-08-25T04:29:03.376Z,17.32
2022-08-25T04:31:31.954Z,17.33
2022-08-25T04:34:02.391Z,17.32
2022-08-25T04:36:29.954Z,17.12
2022-08-25T04:38:56.705Z,16.99
2022-08-25T04:41:25.363Z,16.90
2022-08-25T04:43:53.221Z,16.97
2022-08-25T04:46:25.108Z,16.94
2022-08-25T04:48:53.917Z,17.05
2022-08-25T04:51:27.696Z,16.97
2022-08-25T04:53:54.332Z,16.85
2022-08-25T04:56:26.214Z,16.96
2022-08-25T04:58:55.671Z,16.93
2022-08-25T05:01:25.840Z,16.95
2022-08-25T05:04:00.616Z,16.87
2022-08-25T05:06:28.893Z,16.82
2022-08-25T05:08:57.782Z,16.87
2022-08-25T05:11:26.383Z,16.97
2022-08-25T05:13:56.988Z,17.07
2022-08-25T05:16:26.735Z,17.16
2022-08-25T05:18:54.612Z,17.31
2022-08-25T05:21:27.688Z,17.35
2022-08-25T05:23:59.994Z,17.53
2022-08-25T05:26:30.803Z,17.61
2022-08-25T05:28:58.960Z,17.69
2022-08-25T05:31:26.977Z,17.75
2022-08-25T05:33:55.205Z,17.83
2022-08-25T05:36:24.968Z,17.99
2022-08-25T05:38:51.812Z,18.04
2022-08-25T05:41:25.375Z,18.15
2022-08-25T05:43:52.145Z,18.10
2022-08-25T05:46:21.239Z,18.23
2022-08-25T05:48:49.926Z,18.36
2022-08-25T05:51:17.319Z,18.45
2022-08-25T05:53:48.593Z,18.51
2022-08-25T05:56:15.844Z,18.57
2022-08-25T05:58:44.821Z,18.54
2022-08-25T06:01:43.459Z,18.67
2022-08-25T06:04:12.158Z,18.82
2022-08-25T06:06:39.606Z,19.00
2022-08-25T06:09:09.426Z,19.07
2022-08-25T06:11:41.822Z,19.14
2022-08-25T06:14:09.825Z,19.20
2022-08-25T06:16:38.959Z,19.30
2022-08-25T06:19:08.631Z,19.45
2022-08-25T06:21:37.398Z,19.47
2022-08-25T06:24:04.833Z,19.67
2022-08-25T06:26:31.772Z,19.67
2022-08-25T06:28:58.445Z,19.75
2022-08-25T06:31:25.152Z,19.78
2022-08-25T06:33:52.858Z,19.64
2022-08-25T06:36:20.537Z,19.91
2022-08-25T06:38:48.626Z,19.83
2022-08-25T06:41:16.604Z,19.96
2022-08-25T06:43:48.147Z,20.26
2022-08-25T06:46:21.448Z,20.60
2022-08-25T06:48:49.801Z,20.81
2022-08-25T06:51:20.298Z,20.96
2022-08-25T06:53:49.632Z,20.90
2022-08-25T06:56:19.501Z,20.95
2022-08-25T06:58:47.961Z,20.97
2022-08-25T07:01:27.107Z,20.98
2022-08-25T07:03:58.090Z,21.18
2022-08-25T07:06:26.650Z,21.34
2022-08-25T07:08:53.897Z,21.58
2022-08-25T07:11:21.469Z,21.70
2022-08-25T07:13:49.411Z,21.95
2022-08-25T07:16:18.741Z,22.13
2022-08-25T07:18:47.168Z,22.17
2022-08-25T07:21:15.565Z,22.37
2022-08-25T07:23:43.081Z,22.38
2022-08-25T07:26:38.533Z,22.70
2022-08-25T07:29:19.694Z,22.87
2022-08-25T07:31:46.753Z,23.17
2022-08-25T07:34:34.067Z,23.26
2022-08-25T07:37:05.802Z,23.48
2022-08-25T07:39:34.368Z,23.65
2022-08-25T07:42:02.254Z,23.62
2022-08-25T07:44:29.214Z,23.88
2022-08-25T07:46:56.753Z,23.82
2022-08-25T07:49:26.630Z,23.89
2022-08-25T07:52:05.079Z,24.08
2022-08-25T07:54:37.656Z,24.05
2022-08-25T07:57:09.980Z,24.28
2022-08-25T07:59:42.356Z,24.56
2022-08-25T08:02:17.973Z,24.83
2022-08-25T08:04:48.745Z,24.91
2022-08-25T08:07:17.846Z,25.05
2022-08-25T08:09:44.819Z,25.16
2022-08-25T08:12:15.196Z,25.27
2022-08-25T08:14:44.900Z,25.38
2022-08-25T08:17:13.599Z,25.45
2022-08-25T08:19:44.814Z,25.63
2022-08-25T08:22:15.615Z,25.65
2022-08-25T08:24:54.476Z,25.72
2022-08-25T08:27:23.111Z,25.73
2022-08-25T08:29:50.143Z,25.69
2022-08-25T08:32:17.970Z,25.83
2022-08-25T08:34:47.056Z,26.01
2022-08-25T08:37:18.600Z,26.07
2022-08-25T08:39:48.079Z,26.13
2022-08-25T08:42:43.014Z,26.30
2022-08-25T08:45:28.619Z,26.30
2022-08-25T08:48:43.159Z,26.30
2022-08-25T08:51:33.187Z,26.44
2022-08-25T08:54:18.540Z,26.41
2022-08-25T08:56:50.535Z,26.66
2022-08-25T08:59:30.306Z,26.70
2022-08-25T09:02:04.190Z,26.90
2022-08-25T09:04:57.928Z,27.04
2022-08-25T09:07:42.332Z,27.19
2022-08-25T09:10:12.333Z,27.13
2022-08-25T09:13:11.890Z,27.17
2022-08-25T09:16:11.208Z,27.37
2022-08-25T09:19:23.885Z,27.61
2022-08-25T09:22:35.053Z,27.32
2022-08-25T09:25:18.715Z,27.44
2022-08-25T09:28:09.476Z,27.73
2022-08-25T09:30:57.858Z,28.08
2022-08-25T09:33:27.592Z,28.20
2022-08-25T09:35:57.296Z,28.22
2022-08-25T09:38:26.246Z,27.95
2022-08-25T09:41:00.909Z,27.81
2022-08-25T09:43:28.228Z,27.76
2022-08-25T09:46:23.316Z,27.82
2022-08-25T09:49:11.737Z,27.77
2022-08-25T09:51:42.775Z,27.77
2022-08-25T09:54:12.825Z,27.89
2022-08-25T09:57:00.553Z,28.13
2022-08-25T09:59:37.015Z,27.98
2022-08-25T10:02:27.101Z,27.68
2022-08-25T10:04:54.923Z,27.85
2022-08-25T10:07:51.784Z,28.17
2022-08-25T10:10:33.895Z,28.22
2022-08-25T10:13:15.545Z,28.24
2022-08-25T10:16:20.538Z,28.09
2022-08-25T10:19:08.388Z,27.87
2022-08-25T10:21:38.736Z,28.03
2022-08-25T10:24:09.578Z,28.46
2022-08-25T10:26:44.039Z,28.57
2022-08-25T10:29:42.732Z,28.41
2022-08-25T10:32:16.867Z,28.52
2022-08-25T10:34:55.441Z,28.74
2022-08-25T10:38:03.991Z,28.45
2022-08-25T10:40:49.622Z,28.27
2022-08-25T10:43:49.918Z,28.05
2022-08-25T10:46:42.820Z,27.93
2022-08-25T10:49:25.432Z,28.32
2022-08-25T10:52:37.721Z,28.92
2022-08-25T10:55:25.778Z,28.95
2022-08-25T10:58:04.517Z,28.62
2022-08-25T11:00:54.616Z,28.57
2022-08-25T11:03:52.881Z,28.90
2022-08-25T11:06:41.601Z,28.76
2022-08-25T11:09:18.594Z,28.46
2022-08-25T11:12:19.236Z,28.47
2022-08-25T11:14:56.217Z,28.55
2022-08-25T11:17:50.094Z,28.83
2022-08-25T11:20:38.732Z,28.69
2022-08-25T11:23:25.819Z,28.94
2022-08-25T11:26:01.552Z,29.25
2022-08-25T11:28:57.515Z,29.37
2022-08-25T11:31:27.676Z,29.12
2022-08-25T11:33:56.772Z,28.85
2022-08-25T11:36:40.596Z,28.83
2022-08-25T11:39:34.661Z,28.77
2022-08-25T11:42:43.081Z,28.51
2022-08-25T11:45:34.360Z,28.50
2022-08-25T11:48:37.111Z,28.40
2022-08-25T11:51:09.731Z,28.40
2022-08-25T11:53:43.996Z,28.34
2022-08-25T11:56:34.693Z,28.17
2022-08-25T11:59:02.177Z,28.01
2022-08-25T12:01:40.205Z,28.15
2022-08-25T12:04:42.172Z,28.14
2022-08-25T12:07:11.316Z,28.20
2022-08-25T12:09:55.768Z,28.28
2022-08-25T12:12:56.270Z,28.32
2022-08-25T12:15:35.059Z,28.45
2022-08-25T12:18:36.769Z,28.54
2022-08-25T12:21:06.141Z,28.62
2022-08-25T12:23:44.863Z,28.82
2022-08-25T12:26:38.149Z,29.15
2022-08-25T12:29:29.455Z,29.39
2022-08-25T12:32:27.606Z,29.45
2022-08-25T12:35:29.832Z,29.61
2022-08-25T12:38:15.934Z,29.69
2022-08-25T12:40:42.762Z,29.67
2022-08-25T12:44:30.965Z,29.58
2022-08-25T12:47:26.991Z,30.07
2022-08-25T12:50:32.710Z,30.35
2022-08-25T12:53:24.515Z,30.24
2022-08-25T12:56:07.746Z,30.34
2022-08-25T12:59:23.664Z,30.33
2022-08-25T13:02:33.516Z,30.18
2022-08-25T13:05:20.771Z,30.14
2022-08-25T13:08:17.951Z,29.90
2022-08-25T13:11:13.856Z,30.01
2022-08-25T13:14:18.725Z,30.06
2022-08-25T13:16:59.168Z,30.30
2022-08-25T13:19:35.028Z,30.53
2022-08-25T13:22:16.065Z,30.68
2022-08-25T13:24:50.674Z,30.94
2022-08-25T13:27:27.523Z,31.34
2022-08-25T13:29:59.951Z,31.76
2022-08-25T13:32:39.678Z,32.53
2022-08-25T13:35:28.895Z,33.55
2022-08-25T13:38:19.526Z,33.40
2022-08-25T13:40:46.433Z,33.69
2022-08-25T13:43:15.029Z,33.54
2022-08-25T13:45:48.188Z,33.55
2022-08-25T13:48:39.277Z,33.88
2022-08-25T13:51:22.437Z,33.61
2022-08-25T13:54:03.116Z,34.19
2022-08-25T13:56:40.954Z,33.82
2022-08-25T13:59:25.741Z,34.21
2022-08-25T14:01:55.971Z,34.17
2022-08-25T14:04:50.480Z,34.79
2022-08-25T14:07:21.414Z,35.19
2022-08-25T14:09:55.023Z,35.47
2022-08-25T14:12:44.896Z,35.90
2022-08-25T14:15:17.857Z,35.42
2022-08-25T14:18:08.727Z,34.67
2022-08-25T14:20:37.836Z,34.00
2022-08-25T14:23:16.234Z,33.49
2022-08-25T14:25:47.436Z,33.14
2022-08-25T14:28:19.990Z,32.86
2022-08-25T14:30:55.658Z,32.91
2022-08-25T14:33:29.684Z,32.65
2022-08-25T14:36:02.597Z,32.60
2022-08-25T14:38:29.548Z,32.24
2022-08-25T14:40:59.180Z,31.95
2022-08-25T14:43:31.566Z,31.73
2022-08-25T14:46:08.221Z,31.58
2022-08-25T14:48:44.983Z,31.64
2022-08-25T14:51:15.070Z,31.38
2022-08-25T14:53:43.407Z,31.25
2022-08-25T14:56:10.639Z,31.29
2022-08-25T14:58:48.444Z,31.21
2022-08-25T15:01:28.841Z,31.33
2022-08-25T15:04:10.379Z,31.23
2022-08-25T15:06:43.521Z,31.48
2022-08-25T15:09:16.613Z,31.24
2022-08-25T15:11:51.392Z,31.29
2022-08-25T15:14:28.393Z,31.11
2022-08-25T15:17:00.441Z,30.81
2022-08-25T15:19:28.831Z,30.72
2022-08-25T15:21:58.259Z,30.86
2022-08-25T15:24:27.746Z,30.70
2022-08-25T15:27:02.050Z,30.61
2022-08-25T15:29:32.490Z,30.58
2022-08-25T15:32:00.586Z,30.64
2022-08-25T15:34:27.826Z,30.72
2022-08-25T15:36:56.239Z,30.69
2022-08-25T15:39:22.922Z,30.49
2022-08-25T15:41:51.638Z,30.48
2022-08-25T15:44:19.385Z,30.51
2022-08-25T15:46:49.463Z,30.47
2022-08-25T15:49:20.912Z,30.37
2022-08-25T15:51:54.962Z,30.30
2022-08-25T15:54:24.063Z,30.15
2022-08-25T15:56:55.335Z,30.05
2022-08-25T15:59:22.920Z,29.85
2022-08-25T16:01:54.989Z,29.79
2022-08-25T16:04:25.273Z,29.77
2022-08-25T16:06:52.538Z,29.80
2022-08-25T16:09:22.871Z,29.76
2022-08-25T16:11:56.506Z,29.81
2022-08-25T16:14:25.493Z,29.82
2022-08-25T16:16:58.422Z,29.73
2022-08-25T16:19:35.718Z,30.06
2022-08-25T16:22:02.609Z,30.23
2022-08-25T16:24:33.859Z,30.37
2022-08-25T16:27:11.483Z,30.34
2022-08-25T16:29:44.339Z,30.59
2022-08-25T16:32:13.858Z,30.60
2022-08-25T16:34:42.487Z,30.57
2022-08-25T16:37:09.374Z,30.75
2022-08-25T16:39:37.113Z,30.95
2022-08-25T16:42:06.703Z,31.37
2022-08-25T16:44:34.353Z,31.65
2022-08-25T16:47:01.611Z,32.69
2022-08-25T16:49:28.298Z,33.47
2022-08-25T16:51:57.453Z,33.86
2022-08-25T16:54:45.263Z,34.25
2022-08-25T16:57:12.704Z,34.81
2022-08-25T16:59:39.772Z,35.23
2022-08-25T17:02:06.705Z,35.37
2022-08-25T17:04:33.471Z,35.59
2022-08-25T17:07:00.492Z,35.49
2022-08-25T17:09:29.541Z,35.51
2022-08-25T17:11:57.316Z,35.18
2022-08-25T17:14:24.509Z,34.88
2022-08-25T17:16:54.680Z,34.67
2022-08-25T17:19:28.243Z,34.27
2022-08-25T17:21:55.155Z,34.17
2022-08-25T17:24:29.367Z,33.38
2022-08-25T17:26:58.528Z,32.69
2022-08-25T17:29:25.228Z,32.10
2022-08-25T17:31:53.359Z,31.65
2022-08-25T17:34:23.382Z,31.18
2022-08-25T17:36:51.143Z,30.85
2022-08-25T17:39:19.669Z,30.48
2022-08-25T17:41:49.190Z,30.11
2022-08-25T17:44:17.194Z,30.04
2022-08-25T17:46:47.102Z,29.82
2022-08-25T17:49:14.906Z,29.46
2022-08-25T17:51:42.617Z,29.18
2022-08-25T17:54:09.857Z,28.96
2022-08-25T17:56:37.911Z,28.75
2022-08-25T17:59:04.478Z,28.57
2022-08-25T18:01:34.573Z,28.35
2022-08-25T18:04:01.570Z,28.12
2022-08-25T18:06:30.944Z,27.88
2022-08-25T18:09:01.505Z,27.72
2022-08-25T18:11:30.178Z,27.55
2022-08-25T18:13:57.547Z,27.40
2022-08-25T18:16:25.702Z,27.34
2022-08-25T18:18:54.712Z,27.21
2022-08-25T18:21:24.551Z,27.09
2022-08-25T18:23:51.761Z,26.99
2022-08-25T18:26:24.743Z,26.86
2022-08-25T18:28:52.418Z,26.77
2022-08-25T18:31:19.863Z,26.71
2022-08-25T18:33:46.865Z,26.57
2022-08-25T18:36:13.899Z,26.59
2022-08-25T18:39:00.289Z,26.53
2022-08-25T18:41:34.239Z,26.45
2022-08-25T18:44:00.970Z,26.37
2022-08-25T18:46:27.723Z,26.33
2022-08-25T18:48:55.593Z,26.31
2022-08-25T18:51:23.505Z,26.19
2022-08-25T18:53:51.410Z,26.18
2022-08-25T18:56:26.116Z,26.14
2022-08-25T18:58:52.719Z,26.03
2022-08-25T19:01:20.527Z,25.96
2022-08-25T19:03:49.125Z,25.86
2022-08-25T19:06:17.558Z,25.77
2022-08-25T19:08:46.256Z,25.68
2022-08-25T19:11:12.981Z,25.53
2022-08-25T19:13:40.555Z,25.51
2022-08-25T19:16:20.607Z,25.43
2022-08-25T19:18:49.076Z,25.33
2022-08-25T19:21:22.699Z,25.27
2022-08-25T19:23:50.565Z,25.26
2022-08-25T19:26:18.234Z,25.18
2022-08-25T19:28:48.656Z,25.13
2022-08-25T19:31:24.923Z,25.02
2022-08-25T19:33:53.611Z,24.94
2022-08-25T19:36:30.309Z,24.89
2022-08-25T19:39:00.437Z,24.86
2022-08-25T19:41:31.337Z,24.71
2022-08-25T19:43:59.452Z,24.73
2022-08-25T19:46:35.312Z,24.68
2022-08-25T19:49:26.256Z,24.64
2022-08-25T19:51:56.391Z,24.62
2022-08-25T19:54:31.283Z,24.60
2022-08-25T19:56:59.263Z,24.55
2022-08-25T19:59:42.490Z,24.52
2022-08-25T20:02:16.819Z,24.42
2022-08-25T20:04:50.244Z,24.37
2022-08-25T20:07:23.946Z,24.32
2022-08-25T20:09:53.375Z,24.27
2022-08-25T20:12:24.326Z,24.17
2022-08-25T20:14:53.380Z,24.12
2022-08-25T20:17:23.627Z,24.01
2022-08-25T20:20:09.749Z,23.97
2022-08-25T20:22:38.005Z,23.91
2022-08-25T20:25:17.741Z,23.76
2022-08-25T20:30:29.867Z,23.69
2022-08-25T20:32:58.163Z,23.70
2022-08-25T20:35:27.528Z,23.67
2022-08-25T20:37:58.112Z,23.64
2022-08-25T20:40:27.751Z,23.61
2022-08-25T20:42:58.472Z,23.60
2022-08-25T20:45:25.851Z,23.60
2022-08-25T20:47:52.955Z,23.63
2022-08-25T20:50:20.378Z,23.55
2022-08-25T20:52:48.512Z,23.52
2022-08-25T20:55:15.500Z,23.40
2022-08-25T20:57:46.144Z,23.28
2022-08-25T21:00:14.276Z,23.16
2022-08-25T21:02:42.641Z,23.18
2022-08-25T21:05:09.548Z,23.11
2022-08-25T21:07:36.216Z,23.12
2022-08-25T21:10:14.533Z,23.16
2022-08-25T21:12:42.330Z,23.20
2022-08-25T21:15:10.509Z,23.21
2022-08-25T21:17:37.496Z,23.19
2022-08-25T21:20:24.688Z,23.23
2022-08-25T21:22:53.320Z,23.17
2022-08-25T21:25:20.849Z,23.20
2022-08-25T21:27:47.927Z,23.21
2022-08-25T21:30:14.898Z,23.17
2022-08-25T21:32:53.147Z,23.10
2022-08-25T21:35:23.021Z,23.14
2022-08-25T21:37:53.111Z,23.12
2022-08-25T21:40:21.771Z,23.08
2022-08-25T21:42:49.048Z,23.04
2022-08-25T21:45:15.825Z,23.01
2022-08-25T21:47:42.568Z,22.96
2022-08-25T21:50:11.813Z,22.91
2022-08-25T21:52:39.099Z,22.85
2022-08-25T21:55:08.335Z,22.74
2022-08-25T21:57:43.850Z,22.71
2022-08-25T22:00:12.673Z,22.60
2022-08-25T22:02:39.357Z,22.46
2022-08-25T22:05:09.294Z,22.37
2022-08-25T22:07:41.759Z,22.33
2022-08-25T22:10:16.707Z,22.38
2022-08-25T22:12:45.171Z,22.43
2022-08-25T22:15:15.513Z,22.43
2022-08-25T22:17:42.477Z,22.46
2022-08-25T22:20:10.255Z,22.50
2022-08-25T22:22:37.012Z,22.50
2022-08-25T22:25:05.142Z,22.52
2022-08-25T22:27:32.880Z,22.44
2022-08-25T22:30:00.718Z,22.49
2022-08-25T22:32:27.530Z,22.48
2022-08-25T22:34:54.194Z,22.41
2022-08-25T22:37:20.805Z,22.32
2022-08-25T22:39:48.636Z,22.31
2022-08-25T22:42:15.675Z,22.22
2022-08-25T22:44:42.585Z,22.20
2022-08-25T22:47:10.541Z,22.15
2022-08-25T22:49:39.286Z,22.01
2022-08-25T22:52:07.157Z,21.95
2022-08-25T22:54:36.733Z,22.05
2022-08-25T22:57:06.738Z,22.13
2022-08-25T22:59:34.300Z,22.13
2022-08-25T23:02:01.158Z,22.21
2022-08-25T23:04:27.866Z,22.17
2022-08-25T23:06:54.578Z,22.22
2022-08-25T23:09:21.347Z,22.23
2022-08-25T23:11:48.397Z,22.20
2022-08-25T23:14:19.050Z,22.20
2022-08-25T23:16:45.955Z,22.14
2022-08-25T23:19:31.826Z,22.02
2022-08-25T23:22:16.269Z,21.94
2022-08-25T23:24:51.618Z,21.95
2022-08-25T23:27:20.968Z,21.93
2022-08-25T23:29:50.035Z,21.95
2022-08-25T23:32:18.570Z,21.90
2022-08-25T23:34:46.570Z,21.92
2022-08-25T23:37:15.035Z,21.88
2022-08-25T23:39:45.375Z,21.87
2022-08-25T23:42:12.118Z,21.90
2022-08-25T23:44:38.697Z,21.88
2022-08-25T23:47:07.005Z,21.86
2022-08-25T23:49:33.913Z,21.93
2022-08-25T23:52:01.231Z,21.95
2022-08-25T23:54:31.625Z,21.92
2022-08-25T23:56:59.332Z,21.80
2022-08-25T23:59:26.017Z,21.62
